createdAt,value
2023-04-21T00:00:33.161Z,522.00
2023-04-21T00:01:33.219Z,521.00
2023-04-21T00:02:35.879Z,521.00
2023-04-21T00:03:33.520Z,521.00
2023-04-21T00:04:33.384Z,521.00
2023-04-21T00:05:33.428Z,521.00
2023-04-21T00:06:33.274Z,519.00
2023-04-21T00:07:33.226Z,521.00
2023-04-21T00:08:33.253Z,517.00
2023-04-21T00:09:33.226Z,517.00
2023-04-21T00:10:33.217Z,517.00
2023-04-21T00:11:33.223Z,512.00
2023-04-21T00:12:33.195Z,514.00
2023-04-21T00:13:33.209Z,514.00
2023-04-21T00:14:33.189Z,511.00
2023-04-21T00:15:33.203Z,511.00
2023-04-21T00:16:33.382Z,509.00
2023-04-21T00:17:33.227Z,509.00
2023-04-21T00:18:33.157Z,512.00
2023-04-21T00:19:33.202Z,515.00
2023-04-21T00:20:33.180Z,515.00
2023-04-21T00:21:33.172Z,514.00
2023-04-21T00:22:33.177Z,512.00
2023-04-21T00:23:33.141Z,510.00
2023-04-21T00:24:33.157Z,512.00
2023-04-21T00:25:33.135Z,514.00
2023-04-21T00:26:33.110Z,514.00
2023-04-21T00:27:33.150Z,512.00
2023-04-21T00:28:33.124Z,510.00
2023-04-21T00:29:33.108Z,512.00
2023-04-21T00:30:33.109Z,509.00
2023-04-21T00:31:33.150Z,510.00
2023-04-21T00:32:33.110Z,512.00
2023-04-21T00:33:33.074Z,509.00
2023-04-21T00:34:33.067Z,508.00
2023-04-21T00:35:33.064Z,503.00
2023-04-21T00:36:33.044Z,504.00
2023-04-21T00:37:33.070Z,506.00
2023-04-21T00:38:33.055Z,506.00
2023-04-21T00:39:33.049Z,506.00
2023-04-21T00:40:33.011Z,505.00
2023-04-21T00:41:33.027Z,504.00
2023-04-21T00:42:32.997Z,504.00
2023-04-21T00:43:33.025Z,504.00
2023-04-21T00:44:32.998Z,506.00
2023-04-21T00:45:33.000Z,506.00
2023-04-21T00:46:33.065Z,508.00
2023-04-21T00:47:32.979Z,511.00
2023-04-21T00:48:33.001Z,510.00
2023-04-21T00:49:33.036Z,510.00
2023-04-21T00:50:33.114Z,510.00
2023-04-21T00:51:33.207Z,510.00
2023-04-21T00:52:33.206Z,509.00
2023-04-21T00:53:33.269Z,511.00
2023-04-21T00:54:33.341Z,509.00
2023-04-21T00:55:33.384Z,507.00
2023-04-21T00:56:33.410Z,506.00
2023-04-21T00:57:33.480Z,505.00
2023-04-21T00:58:33.546Z,503.00
2023-04-21T00:59:33.562Z,501.00
2023-04-21T01:00:33.602Z,502.00
2023-04-21T01:01:33.609Z,503.00
2023-04-21T01:02:33.773Z,502.00
2023-04-21T01:03:33.945Z,502.00
2023-04-21T01:04:33.792Z,503.00
2023-04-21T01:05:33.842Z,502.00
2023-04-21T01:06:33.871Z,499.00
2023-04-21T01:07:33.931Z,496.00
2023-04-21T01:08:33.985Z,497.00
2023-04-21T01:09:34.081Z,498.00
2023-04-21T01:10:34.083Z,499.00
2023-04-21T01:11:34.062Z,498.00
2023-04-21T01:12:34.113Z,499.00
2023-04-21T01:13:34.131Z,500.00
2023-04-21T01:14:34.147Z,498.00
2023-04-21T01:15:34.136Z,498.00
2023-04-21T01:16:34.177Z,499.00
2023-04-21T01:17:34.185Z,498.00
2023-04-21T01:18:34.175Z,500.00
2023-04-21T01:19:34.253Z,503.00
2023-04-21T01:20:34.242Z,503.00
2023-04-21T01:21:34.261Z,503.00
2023-04-21T01:22:34.246Z,502.00
2023-04-21T01:23:34.304Z,501.00
2023-04-21T01:24:34.307Z,500.00
2023-04-21T01:25:34.314Z,497.00
2023-04-21T01:26:34.311Z,496.00
2023-04-21T01:27:34.337Z,497.00
2023-04-21T01:28:34.371Z,499.00
2023-04-21T01:29:34.388Z,498.00
2023-04-21T01:30:34.369Z,499.00
2023-04-21T01:31:34.531Z,500.00
2023-04-21T01:32:34.432Z,499.00
2023-04-21T01:33:34.407Z,497.00
2023-04-21T01:34:34.393Z,497.00
2023-04-21T01:35:34.449Z,495.00
2023-04-21T01:36:34.458Z,496.00
2023-04-21T01:37:34.471Z,499.00
2023-04-21T01:38:34.499Z,499.00
2023-04-21T01:39:34.476Z,504.00
2023-04-21T01:40:34.510Z,504.00
2023-04-21T01:41:34.485Z,503.00
2023-04-21T01:42:34.519Z,500.00
2023-04-21T01:43:34.544Z,500.00
2023-04-21T01:44:34.544Z,499.00
2023-04-21T01:45:34.573Z,497.00
2023-04-21T01:46:34.566Z,499.00
2023-04-21T01:47:34.600Z,499.00
2023-04-21T01:48:34.575Z,500.00
2023-04-21T01:49:34.578Z,500.00
2023-04-21T01:50:34.614Z,501.00
2023-04-21T01:51:34.609Z,502.00
2023-04-21T01:52:34.592Z,503.00
2023-04-21T01:53:34.621Z,500.00
2023-04-21T01:54:34.602Z,499.00
2023-04-21T01:55:34.609Z,502.00
2023-04-21T01:56:34.633Z,501.00
2023-04-21T01:57:34.627Z,501.00
2023-04-21T01:58:34.640Z,499.00
2023-04-21T01:59:34.636Z,499.00
2023-04-21T02:00:34.615Z,499.00
2023-04-21T02:01:34.640Z,501.00
2023-04-21T02:02:34.689Z,498.00
2023-04-21T02:03:34.792Z,499.00
2023-04-21T02:04:34.763Z,499.00
2023-04-21T02:05:34.613Z,501.00
2023-04-21T02:06:34.626Z,503.00
2023-04-21T02:07:34.619Z,503.00
2023-04-21T02:08:34.666Z,504.00
2023-04-21T02:09:34.665Z,503.00
2023-04-21T02:10:34.666Z,504.00
2023-04-21T02:11:34.706Z,502.00
2023-04-21T02:12:34.732Z,501.00
2023-04-21T02:13:34.759Z,496.00
2023-04-21T02:14:34.810Z,495.00
2023-04-21T02:15:34.839Z,495.00
2023-04-21T02:16:34.857Z,494.00
2023-04-21T02:17:34.903Z,492.00
2023-04-21T02:18:34.864Z,493.00
2023-04-21T02:19:34.924Z,496.00
2023-04-21T02:20:34.952Z,497.00
2023-04-21T02:21:35.018Z,499.00
2023-04-21T02:22:35.107Z,499.00
2023-04-21T02:23:35.140Z,497.00
2023-04-21T02:24:35.189Z,497.00
2023-04-21T02:25:35.283Z,498.00
2023-04-21T02:26:35.328Z,497.00
2023-04-21T02:27:35.403Z,499.00
2023-04-21T02:28:35.409Z,496.00
2023-04-21T02:29:35.421Z,496.00
2023-04-21T02:30:35.438Z,494.00
2023-04-21T02:31:45.987Z,497.00
2023-04-21T02:32:36.592Z,495.00
2023-04-21T02:33:35.450Z,498.00
2023-04-21T02:34:35.461Z,495.00
2023-04-21T02:35:35.461Z,496.00
2023-04-21T02:36:35.447Z,497.00
2023-04-21T02:37:35.432Z,496.00
2023-04-21T02:38:35.413Z,495.00
2023-04-21T02:39:35.398Z,494.00
2023-04-21T02:40:35.411Z,495.00
2023-04-21T02:41:35.463Z,495.00
2023-04-21T02:42:35.420Z,495.00
2023-04-21T02:43:35.453Z,496.00
2023-04-21T02:44:35.387Z,492.00
2023-04-21T02:45:35.351Z,493.00
2023-04-21T02:46:35.412Z,490.00
2023-04-21T02:47:35.350Z,490.00
2023-04-21T02:48:35.362Z,492.00
2023-04-21T02:49:35.322Z,494.00
2023-04-21T02:50:35.323Z,497.00
2023-04-21T02:51:35.331Z,496.00
2023-04-21T02:52:35.331Z,497.00
2023-04-21T02:53:35.326Z,499.00
2023-04-21T02:54:35.355Z,498.00
2023-04-21T02:55:35.341Z,496.00
2023-04-21T02:56:35.385Z,493.00
2023-04-21T02:57:35.383Z,492.00
2023-04-21T02:58:35.403Z,492.00
2023-04-21T02:59:35.401Z,490.00
2023-04-21T03:00:35.471Z,490.00
2023-04-21T03:01:35.434Z,492.00
2023-04-21T03:02:35.619Z,493.00
2023-04-21T03:03:35.547Z,492.00
2023-04-21T03:04:35.533Z,491.00
2023-04-21T03:05:35.511Z,491.00
2023-04-21T03:06:35.505Z,490.00
2023-04-21T03:07:35.529Z,489.00
2023-04-21T03:08:35.550Z,489.00
2023-04-21T03:09:35.528Z,489.00
2023-04-21T03:10:35.536Z,489.00
2023-04-21T03:11:35.548Z,487.00
2023-04-21T03:12:35.569Z,487.00
2023-04-21T03:13:35.557Z,486.00
2023-04-21T03:14:35.700Z,486.00
2023-04-21T03:15:35.722Z,488.00
2023-04-21T03:16:35.854Z,486.00
2023-04-21T03:17:35.831Z,485.00
2023-04-21T03:18:35.792Z,482.00
2023-04-21T03:19:35.797Z,481.00
2023-04-21T03:20:35.806Z,480.00
2023-04-21T03:21:35.784Z,481.00
2023-04-21T03:22:35.784Z,483.00
2023-04-21T03:23:35.809Z,486.00
2023-04-21T03:24:35.818Z,485.00
2023-04-21T03:25:35.836Z,485.00
2023-04-21T03:26:35.851Z,484.00
2023-04-21T03:27:35.854Z,483.00
2023-04-21T03:28:35.868Z,483.00
2023-04-21T03:29:35.836Z,482.00
2023-04-21T03:30:35.848Z,481.00
2023-04-21T03:31:35.903Z,479.00
2023-04-21T03:32:35.934Z,477.00
2023-04-21T03:33:35.846Z,478.00
2023-04-21T03:34:35.933Z,480.00
2023-04-21T03:35:35.875Z,480.00
2023-04-21T03:36:35.864Z,481.00
2023-04-21T03:37:35.893Z,481.00
2023-04-21T03:38:35.919Z,481.00
2023-04-21T03:39:35.913Z,481.00
2023-04-21T03:40:35.933Z,481.00
2023-04-21T03:41:35.895Z,480.00
2023-04-21T03:42:35.907Z,479.00
2023-04-21T03:43:35.925Z,480.00
2023-04-21T03:44:35.940Z,479.00
2023-04-21T03:45:36.098Z,481.00
2023-04-21T03:46:35.971Z,480.00
2023-04-21T03:47:36.050Z,481.00
2023-04-21T03:48:36.047Z,479.00
2023-04-21T03:49:36.074Z,478.00
2023-04-21T03:50:36.056Z,476.00
2023-04-21T03:51:36.054Z,475.00
2023-04-21T03:52:36.066Z,476.00
2023-04-21T03:53:36.066Z,475.00
2023-04-21T03:54:36.057Z,478.00
2023-04-21T03:55:36.068Z,478.00
2023-04-21T03:56:36.067Z,479.00
2023-04-21T03:57:36.071Z,479.00
2023-04-21T03:58:36.039Z,479.00
2023-04-21T03:59:36.059Z,480.00
2023-04-21T04:00:36.050Z,480.00
2023-04-21T04:01:36.076Z,481.00
2023-04-21T04:02:36.199Z,479.00
2023-04-21T04:03:36.176Z,479.00
2023-04-21T04:04:36.125Z,479.00
2023-04-21T04:05:36.162Z,474.00
2023-04-21T04:06:36.121Z,473.00
2023-04-21T04:07:36.161Z,473.00
2023-04-21T04:08:36.237Z,475.00
2023-04-21T04:09:36.254Z,473.00
2023-04-21T04:10:36.314Z,471.00
2023-04-21T04:11:36.332Z,471.00
2023-04-21T04:12:36.347Z,472.00
2023-04-21T04:13:36.382Z,472.00
2023-04-21T04:14:36.354Z,474.00
2023-04-21T04:15:36.373Z,476.00
2023-04-21T04:16:36.334Z,474.00
2023-04-21T04:17:36.420Z,475.00
2023-04-21T04:18:36.331Z,472.00
2023-04-21T04:19:36.310Z,473.00
2023-04-21T04:20:37.332Z,473.00
2023-04-21T04:21:36.336Z,471.00
2023-04-21T04:22:36.307Z,474.00
2023-04-21T04:23:36.298Z,473.00
2023-04-21T04:24:36.285Z,471.00
2023-04-21T04:25:36.291Z,468.00
2023-04-21T04:26:36.312Z,469.00
2023-04-21T04:27:36.261Z,467.00
2023-04-21T04:28:36.293Z,467.00
2023-04-21T04:29:36.298Z,468.00
2023-04-21T04:30:36.327Z,465.00
2023-04-21T04:31:36.364Z,466.00
2023-04-21T04:32:36.350Z,469.00
2023-04-21T04:33:36.358Z,470.00
2023-04-21T04:34:36.379Z,472.00
2023-04-21T04:35:36.440Z,474.00
2023-04-21T04:36:36.452Z,473.00
2023-04-21T04:37:36.489Z,473.00
2023-04-21T04:38:36.531Z,471.00
2023-04-21T04:39:36.560Z,471.00
2023-04-21T04:40:36.572Z,471.00
2023-04-21T04:41:36.564Z,469.00
2023-04-21T04:42:36.569Z,469.00
2023-04-21T04:43:36.544Z,470.00
2023-04-21T04:44:36.542Z,470.00
2023-04-21T04:45:36.524Z,472.00
2023-04-21T04:46:36.607Z,473.00
2023-04-21T04:47:36.554Z,474.00
2023-04-21T04:48:36.573Z,474.00
2023-04-21T04:49:36.573Z,473.00
2023-04-21T04:50:36.575Z,472.00
2023-04-21T04:51:36.636Z,470.00
2023-04-21T04:52:36.542Z,469.00
2023-04-21T04:53:36.558Z,468.00
2023-04-21T04:54:36.551Z,470.00
2023-04-21T04:55:36.561Z,471.00
2023-04-21T04:56:36.543Z,473.00
2023-04-21T04:57:36.558Z,473.00
2023-04-21T04:58:36.532Z,475.00
2023-04-21T04:59:36.524Z,476.00
2023-04-21T05:00:43.554Z,477.00
2023-04-21T05:01:36.550Z,477.00
2023-04-21T05:02:36.681Z,477.00
2023-04-21T05:03:36.807Z,475.00
2023-04-21T05:04:36.675Z,471.00
2023-04-21T05:05:36.511Z,471.00
2023-04-21T05:06:36.529Z,470.00
2023-04-21T05:07:36.494Z,468.00
2023-04-21T05:08:36.490Z,467.00
2023-04-21T05:09:36.515Z,466.00
2023-04-21T05:10:36.498Z,465.00
2023-04-21T05:11:36.501Z,465.00
2023-04-21T05:12:36.467Z,466.00
2023-04-21T05:13:39.104Z,467.00
2023-04-21T05:14:36.491Z,468.00
2023-04-21T05:15:36.457Z,469.00
2023-04-21T05:16:36.486Z,467.00
2023-04-21T05:17:36.473Z,469.00
2023-04-21T05:18:36.449Z,471.00
2023-04-21T05:19:36.434Z,471.00
2023-04-21T05:20:36.415Z,470.00
2023-04-21T05:21:36.429Z,472.00
2023-04-21T05:22:36.416Z,473.00
2023-04-21T05:23:36.381Z,471.00
2023-04-21T05:24:36.378Z,471.00
2023-04-21T05:25:36.389Z,470.00
2023-04-21T05:26:36.354Z,468.00
2023-04-21T05:27:36.327Z,467.00
2023-04-21T05:28:36.377Z,467.00
2023-04-21T05:29:36.352Z,464.00
2023-04-21T05:30:36.320Z,464.00
2023-04-21T05:31:36.345Z,464.00
2023-04-21T05:32:36.416Z,465.00
2023-04-21T05:33:36.294Z,463.00
2023-04-21T05:34:36.383Z,460.00
2023-04-21T05:35:38.044Z,465.00
2023-04-21T05:36:36.279Z,480.00
2023-04-21T05:37:36.302Z,477.00
2023-04-21T05:38:36.262Z,480.00
2023-04-21T05:39:36.286Z,485.00
2023-04-21T05:40:36.275Z,507.00
2023-04-21T05:41:36.255Z,531.00
2023-04-21T05:42:36.241Z,545.00
2023-04-21T05:43:36.238Z,552.00
2023-04-21T05:44:36.320Z,558.00
2023-04-21T05:45:43.401Z,575.00
2023-04-21T05:46:36.439Z,619.00
2023-04-21T05:47:36.375Z,598.00
2023-04-21T05:48:36.365Z,602.00
2023-04-21T05:49:36.366Z,654.00
2023-04-21T05:50:36.322Z,676.00
2023-04-21T05:51:36.308Z,685.00
2023-04-21T05:52:36.328Z,691.00
2023-04-21T05:53:36.330Z,692.00
2023-04-21T05:54:36.307Z,696.00
2023-04-21T05:55:36.293Z,741.00
2023-04-21T05:56:36.311Z,757.00
2023-04-21T05:57:36.292Z,805.00
2023-04-21T05:58:36.304Z,804.00
2023-04-21T05:59:36.410Z,808.00
2023-04-21T06:00:36.285Z,813.00
2023-04-21T06:01:36.280Z,821.00
2023-04-21T06:02:36.373Z,828.00
2023-04-21T06:03:36.591Z,832.00
2023-04-21T06:04:36.452Z,843.00
2023-04-21T06:05:36.271Z,869.00
2023-04-21T06:06:36.253Z,880.00
2023-04-21T06:07:36.225Z,897.00
2023-04-21T06:08:36.221Z,922.00
2023-04-21T06:09:36.264Z,952.00
2023-04-21T06:10:36.221Z,975.00
2023-04-21T06:11:36.195Z,986.00
2023-04-21T06:12:36.192Z,992.00
2023-04-21T06:13:38.369Z,1006.00
2023-04-21T06:14:36.166Z,1016.00
2023-04-21T06:15:36.159Z,1031.00
2023-04-21T06:16:36.274Z,1036.00
2023-04-21T06:17:36.165Z,1043.00
2023-04-21T06:18:36.164Z,1081.00
2023-04-21T06:19:36.114Z,1096.00
2023-04-21T06:20:36.125Z,1099.00
2023-04-21T06:21:36.164Z,1134.00
2023-04-21T06:22:36.119Z,1140.00
2023-04-21T06:23:36.121Z,1144.00
2023-04-21T06:24:36.109Z,1156.00
2023-04-21T06:25:36.108Z,1164.00
2023-04-21T06:26:36.120Z,1173.00
2023-04-21T06:27:36.085Z,1180.00
2023-04-21T06:28:36.127Z,1182.00
2023-04-21T06:29:36.064Z,1197.00
2023-04-21T06:30:36.103Z,1223.00
2023-04-21T06:31:36.124Z,1234.00
2023-04-21T06:32:36.145Z,1260.00
2023-04-21T06:33:36.148Z,1296.00
2023-04-21T06:34:36.059Z,1294.00
2023-04-21T06:35:36.060Z,1297.00
2023-04-21T06:36:36.051Z,1305.00
2023-04-21T06:37:36.002Z,1315.00
2023-04-21T06:38:35.983Z,1309.00
2023-04-21T06:39:36.030Z,1311.00
2023-04-21T06:40:36.021Z,1324.00
2023-04-21T06:41:35.965Z,1330.00
2023-04-21T06:42:35.975Z,1343.00
2023-04-21T06:43:36.002Z,1366.00
2023-04-21T06:44:35.956Z,1389.00
2023-04-21T06:45:35.922Z,1398.00
2023-04-21T06:46:36.031Z,1419.00
2023-04-21T06:47:35.951Z,1448.00
2023-04-21T06:48:35.944Z,1461.00
2023-04-21T06:49:35.920Z,1468.00
2023-04-21T06:50:35.928Z,1486.00
2023-04-21T06:51:35.908Z,1509.00
2023-04-21T06:52:35.884Z,1517.00
2023-04-21T06:53:35.918Z,1528.00
2023-04-21T06:54:35.882Z,1540.00
2023-04-21T06:55:35.889Z,1552.00
2023-04-21T06:56:35.856Z,1564.00
2023-04-21T06:57:35.894Z,1587.00
2023-04-21T06:58:35.887Z,1602.00
2023-04-21T06:59:35.859Z,1609.00
2023-04-21T07:00:35.858Z,1605.00
2023-04-21T07:01:35.864Z,1607.00
2023-04-21T07:02:35.931Z,1604.00
2023-04-21T07:03:35.992Z,1610.00
2023-04-21T07:04:35.907Z,1613.00
2023-04-21T07:05:35.798Z,1607.00
2023-04-21T07:06:35.800Z,1534.00
2023-04-21T07:07:35.804Z,1511.00
2023-04-21T07:08:35.775Z,1407.00
2023-04-21T07:09:35.826Z,1426.00
2023-04-21T07:10:35.786Z,1442.00
2023-04-21T07:11:35.805Z,1441.00
2023-04-21T07:12:35.787Z,1439.00
2023-04-21T07:13:35.749Z,1433.00
2023-04-21T07:14:35.884Z,1427.00
2023-04-21T07:15:35.802Z,1422.00
2023-04-21T07:16:35.900Z,1414.00
2023-04-21T07:17:35.915Z,1407.00
2023-04-21T07:18:35.905Z,1402.00
2023-04-21T07:19:35.900Z,1397.00
2023-04-21T07:20:35.902Z,1388.00
2023-04-21T07:21:35.927Z,1381.00
2023-04-21T07:22:35.890Z,1375.00
2023-04-21T07:23:35.919Z,1373.00
2023-04-21T07:24:35.943Z,1369.00
2023-04-21T07:25:35.963Z,1362.00
2023-04-21T07:26:35.980Z,1353.00
2023-04-21T07:27:35.981Z,1348.00
2023-04-21T07:28:36.030Z,1343.00
2023-04-21T07:29:36.024Z,1334.00
2023-04-21T07:30:36.007Z,943.00
2023-04-21T07:31:36.113Z,702.00
2023-04-21T07:32:36.066Z,665.00
2023-04-21T07:33:36.060Z,627.00
2023-04-21T07:34:36.101Z,626.00
2023-04-21T07:35:36.090Z,633.00
2023-04-21T07:36:36.174Z,637.00
2023-04-21T07:37:36.165Z,637.00
2023-04-21T07:38:36.241Z,643.00
2023-04-21T07:39:36.508Z,651.00
2023-04-21T07:40:36.360Z,661.00
2023-04-21T07:41:36.379Z,663.00
2023-04-21T07:42:36.421Z,668.00
2023-04-21T07:43:36.450Z,670.00
2023-04-21T07:44:36.479Z,640.00
2023-04-21T07:45:36.478Z,577.00
2023-04-21T07:46:36.583Z,559.00
2023-04-21T07:47:36.537Z,507.00
2023-04-21T07:48:36.544Z,499.00
2023-04-21T07:49:36.586Z,494.00
2023-04-21T07:50:36.607Z,496.00
2023-04-21T07:51:36.644Z,499.00
2023-04-21T07:52:36.664Z,500.00
2023-04-21T07:53:36.679Z,500.00
2023-04-21T07:54:36.961Z,498.00
2023-04-21T07:55:36.690Z,495.00
2023-04-21T07:56:36.734Z,492.00
2023-04-21T07:57:36.691Z,492.00
2023-04-21T07:58:36.782Z,489.00
2023-04-21T07:59:36.732Z,487.00
2023-04-21T08:00:36.821Z,492.00
2023-04-21T08:01:36.837Z,494.00
2023-04-21T08:02:36.992Z,498.00
2023-04-21T08:03:37.135Z,501.00
2023-04-21T08:04:37.705Z,508.00
2023-04-21T08:05:40.863Z,513.00
2023-04-21T08:06:37.083Z,518.00
2023-04-21T08:07:37.050Z,525.00
2023-04-21T08:08:37.054Z,527.00
2023-04-21T08:09:37.018Z,529.00
2023-04-21T08:10:37.458Z,525.00
2023-04-21T08:11:37.009Z,520.00
2023-04-21T08:12:36.990Z,517.00
2023-04-21T08:13:37.000Z,518.00
2023-04-21T08:14:37.552Z,515.00
2023-04-21T08:15:36.978Z,513.00
2023-04-21T08:16:36.996Z,514.00
2023-04-21T08:17:37.044Z,514.00
2023-04-21T08:18:36.936Z,514.00
2023-04-21T08:19:36.970Z,517.00
2023-04-21T08:20:36.959Z,520.00
2023-04-21T08:21:36.977Z,522.00
2023-04-21T08:22:36.961Z,524.00
2023-04-21T08:23:36.896Z,524.00
2023-04-21T08:24:36.892Z,522.00
2023-04-21T08:25:36.940Z,518.00
2023-04-21T08:26:36.879Z,512.00
2023-04-21T08:27:36.873Z,508.00
2023-04-21T08:28:37.233Z,504.00
2023-04-21T08:29:36.893Z,501.00
2023-04-21T08:30:36.968Z,502.00
2023-04-21T08:31:36.926Z,510.00
2023-04-21T08:32:36.915Z,514.00
2023-04-21T08:33:43.893Z,516.00
2023-04-21T08:34:37.875Z,520.00
2023-04-21T08:35:36.991Z,516.00
2023-04-21T08:36:36.834Z,514.00
2023-04-21T08:37:36.856Z,493.00
2023-04-21T08:38:36.796Z,481.00
2023-04-21T08:39:36.788Z,476.00
2023-04-21T08:40:36.794Z,467.00
2023-04-21T08:41:36.756Z,466.00
2023-04-21T08:42:36.738Z,465.00
2023-04-21T08:43:36.787Z,462.00
2023-04-21T08:44:36.755Z,461.00
2023-04-21T08:45:36.923Z,458.00
2023-04-21T08:46:36.725Z,457.00
2023-04-21T08:47:36.784Z,453.00
2023-04-21T08:48:36.702Z,454.00
2023-04-21T08:49:36.723Z,453.00
2023-04-21T08:50:36.995Z,449.00
2023-04-21T08:51:36.685Z,448.00
2023-04-21T08:52:36.768Z,547.00
2023-04-21T08:53:36.710Z,541.00
2023-04-21T08:54:36.671Z,537.00
2023-04-21T08:55:36.692Z,534.00
2023-04-21T08:56:36.655Z,535.00
2023-04-21T08:57:36.669Z,534.00
2023-04-21T08:58:36.662Z,533.00
2023-04-21T08:59:36.638Z,533.00
2023-04-21T09:00:37.004Z,537.00
2023-04-21T09:01:36.690Z,534.00
2023-04-21T09:02:36.722Z,537.00
2023-04-21T09:03:36.799Z,539.00
2023-04-21T09:04:36.761Z,532.00
2023-04-21T09:05:40.665Z,526.00
2023-04-21T09:06:37.648Z,533.00
2023-04-21T09:07:36.725Z,559.00
2023-04-21T09:08:36.671Z,572.00
2023-04-21T09:09:36.678Z,577.00
2023-04-21T09:10:36.605Z,580.00
2023-04-21T09:11:37.416Z,581.00
2023-04-21T09:12:36.597Z,577.00
2023-04-21T09:13:36.626Z,572.00
2023-04-21T09:14:36.625Z,569.00
2023-04-21T09:15:36.968Z,570.00
2023-04-21T09:16:36.634Z,571.00
2023-04-21T09:17:36.737Z,574.00
2023-04-21T09:18:36.568Z,568.00
2023-04-21T09:19:36.553Z,562.00
2023-04-21T09:20:36.581Z,551.00
2023-04-21T09:21:36.557Z,556.00
2023-04-21T09:22:36.550Z,559.00
2023-04-21T09:23:36.511Z,557.00
2023-04-21T09:24:36.563Z,550.00
2023-04-21T09:25:36.529Z,544.00
2023-04-21T09:26:36.995Z,538.00
2023-04-21T09:27:36.578Z,538.00
2023-04-21T09:28:36.614Z,536.00
2023-04-21T09:29:36.601Z,539.00
2023-04-21T09:30:36.654Z,544.00
2023-04-21T09:31:36.814Z,549.00
2023-04-21T09:32:36.674Z,555.00
2023-04-21T09:33:42.617Z,556.00
2023-04-21T09:34:37.677Z,559.00
2023-04-21T09:35:36.686Z,565.00
2023-04-21T09:36:36.639Z,571.00
2023-04-21T09:37:36.710Z,585.00
2023-04-21T09:38:36.615Z,596.00
2023-04-21T09:39:49.332Z,599.00
2023-04-21T09:40:37.601Z,605.00
2023-04-21T09:41:37.021Z,612.00
2023-04-21T09:42:39.658Z,620.00
2023-04-21T09:43:36.582Z,601.00
2023-04-21T09:44:47.371Z,553.00
2023-04-21T09:45:40.661Z,562.00
2023-04-21T09:46:36.637Z,561.00
2023-04-21T09:47:36.602Z,561.00
2023-04-21T09:48:36.557Z,563.00
2023-04-21T09:49:36.541Z,572.00
2023-04-21T09:52:37.508Z,616.00
2023-04-21T09:53:36.547Z,621.00
2023-04-21T09:54:36.699Z,634.00
2023-04-21T09:55:36.512Z,642.00
2023-04-21T09:56:36.511Z,645.00
2023-04-21T09:57:36.504Z,650.00
2023-04-21T09:58:36.489Z,656.00
2023-04-21T09:59:36.480Z,660.00
2023-04-21T10:00:36.452Z,666.00
2023-04-21T10:01:36.586Z,675.00
2023-04-21T10:02:36.590Z,679.00
2023-04-21T10:03:36.619Z,680.00
2023-04-21T10:04:36.713Z,678.00
2023-04-21T10:05:37.774Z,677.00
2023-04-21T10:06:36.435Z,670.00
2023-04-21T10:07:36.480Z,632.00
2023-04-21T10:08:36.436Z,637.00
2023-04-21T10:09:36.386Z,630.00
2023-04-21T10:10:36.420Z,602.00
2023-04-21T10:11:36.435Z,590.00
2023-04-21T10:12:36.412Z,582.00
2023-04-21T10:13:36.387Z,574.00
2023-04-21T10:14:37.052Z,570.00
2023-04-21T10:15:36.388Z,572.00
2023-04-21T10:16:36.706Z,574.00
2023-04-21T10:17:36.550Z,699.00
2023-04-21T10:18:36.576Z,691.00
2023-04-21T10:19:36.595Z,636.00
2023-04-21T10:20:36.660Z,631.00
2023-04-21T10:21:37.049Z,641.00
2023-04-21T10:22:36.734Z,645.00
2023-04-21T10:23:36.708Z,642.00
2023-04-21T10:24:36.759Z,640.00
2023-04-21T10:25:36.812Z,642.00
2023-04-21T10:26:36.857Z,643.00
2023-04-21T10:27:36.886Z,638.00
2023-04-21T10:28:37.326Z,637.00
2023-04-21T10:29:52.560Z,634.00
2023-04-21T10:30:37.934Z,633.00
2023-04-21T10:31:36.881Z,631.00
2023-04-21T10:32:37.027Z,628.00
2023-04-21T10:33:36.861Z,626.00
2023-04-21T10:34:36.890Z,627.00
2023-04-21T10:35:36.919Z,624.00
2023-04-21T10:36:37.033Z,622.00
2023-04-21T10:37:36.842Z,618.00
2023-04-21T10:38:36.872Z,620.00
2023-04-21T10:39:36.889Z,622.00
2023-04-21T10:40:44.153Z,623.00
2023-04-21T10:41:38.059Z,623.00
2023-04-21T10:42:36.946Z,623.00
2023-04-21T10:43:36.794Z,620.00
2023-04-21T10:44:36.806Z,618.00
2023-04-21T10:45:36.810Z,616.00
2023-04-21T10:46:36.947Z,617.00
2023-04-21T10:47:36.876Z,619.00
2023-04-21T10:48:36.760Z,622.00
2023-04-21T10:49:36.777Z,623.00
2023-04-21T10:50:38.995Z,624.00
2023-04-21T10:51:36.785Z,623.00
2023-04-21T10:52:36.751Z,624.00
2023-04-21T10:53:36.733Z,622.00
2023-04-21T10:54:36.777Z,622.00
2023-04-21T10:55:36.745Z,621.00
2023-04-21T10:56:38.647Z,619.00
2023-04-21T10:57:37.061Z,618.00
2023-04-21T10:58:36.690Z,619.00
2023-04-21T10:59:36.698Z,619.00
2023-04-21T11:00:36.795Z,617.00
2023-04-21T11:01:36.734Z,614.00
2023-04-21T11:02:39.138Z,614.00
2023-04-21T11:03:36.932Z,613.00
2023-04-21T11:04:37.000Z,613.00
2023-04-21T11:05:36.678Z,610.00
2023-04-21T11:06:36.646Z,609.00
2023-04-21T11:07:37.226Z,610.00
2023-04-21T11:08:38.264Z,608.00
2023-04-21T11:09:36.629Z,606.00
2023-04-21T11:10:36.637Z,602.00
2023-04-21T11:11:36.645Z,604.00
2023-04-21T11:12:37.029Z,603.00
2023-04-21T11:13:36.597Z,602.00
2023-04-21T11:14:37.020Z,599.00
2023-04-21T11:15:36.594Z,599.00
2023-04-21T11:16:36.665Z,598.00
2023-04-21T11:17:37.070Z,595.00
2023-04-21T11:18:36.623Z,593.00
2023-04-21T11:19:36.600Z,592.00
2023-04-21T11:20:36.594Z,592.00
2023-04-21T11:21:36.610Z,592.00
2023-04-21T11:22:37.020Z,592.00
2023-04-21T11:23:36.553Z,592.00
2023-04-21T11:24:36.540Z,590.00
2023-04-21T11:25:36.568Z,588.00
2023-04-21T11:26:36.542Z,588.00
2023-04-21T11:27:36.506Z,586.00
2023-04-21T11:28:36.653Z,579.00
2023-04-21T11:29:36.491Z,579.00
2023-04-21T11:30:36.545Z,580.00
2023-04-21T11:31:36.650Z,581.00
2023-04-21T11:32:38.284Z,582.00
2023-04-21T11:33:36.502Z,580.00
2023-04-21T11:34:36.494Z,581.00
2023-04-21T11:35:36.466Z,583.00
2023-04-21T11:36:36.479Z,583.00
2023-04-21T11:37:36.469Z,583.00
2023-04-21T11:38:36.454Z,583.00
2023-04-21T11:39:36.471Z,581.00
2023-04-21T11:40:36.446Z,581.00
2023-04-21T11:41:36.513Z,579.00
2023-04-21T11:42:36.574Z,579.00
2023-04-21T11:43:36.636Z,580.00
2023-04-21T11:44:36.620Z,578.00
2023-04-21T11:45:36.730Z,577.00
2023-04-21T11:46:36.810Z,576.00
2023-04-21T11:47:36.838Z,576.00
2023-04-21T11:48:36.831Z,574.00
2023-04-21T11:49:36.881Z,574.00
2023-04-21T11:50:36.954Z,574.00
2023-04-21T11:51:37.000Z,570.00
2023-04-21T11:52:37.041Z,568.00
2023-04-21T11:53:37.070Z,565.00
2023-04-21T11:54:37.107Z,561.00
2023-04-21T11:55:37.216Z,563.00
2023-04-21T11:56:37.207Z,562.00
2023-04-21T11:57:37.268Z,559.00
2023-04-21T11:58:37.326Z,559.00
2023-04-21T11:59:37.347Z,559.00
2023-04-21T12:00:37.396Z,559.00
2023-04-21T12:01:37.417Z,558.00
2023-04-21T12:02:37.534Z,558.00
2023-04-21T12:03:37.570Z,558.00
2023-04-21T12:04:37.586Z,560.00
2023-04-21T12:05:37.490Z,559.00
2023-04-21T12:06:37.436Z,555.00
2023-04-21T12:07:37.432Z,554.00
2023-04-21T12:08:37.424Z,554.00
2023-04-21T12:09:37.487Z,551.00
2023-04-21T12:10:37.460Z,549.00
2023-04-21T12:11:37.449Z,548.00
2023-04-21T12:12:37.452Z,548.00
2023-04-21T12:13:37.472Z,548.00
2023-04-21T12:14:37.464Z,549.00
2023-04-21T12:15:37.463Z,551.00
2023-04-21T12:16:37.935Z,551.00
2023-04-21T12:17:37.533Z,551.00
2023-04-21T12:18:37.490Z,549.00
2023-04-21T12:19:37.504Z,550.00
2023-04-21T12:20:37.502Z,546.00
2023-04-21T12:21:37.600Z,547.00
2023-04-21T12:22:37.641Z,550.00
2023-04-21T12:23:37.706Z,549.00
2023-04-21T12:24:37.763Z,548.00
2023-04-21T12:25:37.808Z,546.00
2023-04-21T12:26:37.836Z,547.00
2023-04-21T12:27:37.902Z,545.00
2023-04-21T12:28:37.961Z,545.00